Mount Washington, Maryland
Current Conditions -  °F | °C
As of 11:54 PM on Monday 20 Oct 2014 (Local Time) from KBWI Reporting Station
Overcast Overcast  
Wind Chill: 57°   Ceiling: 10000
Heat Index: 57°   Visibility: 10mi
Dew Point: 44°   Wind: 8mph
Humidity: 62%   Direction: 180°S
Pressure: 29.92"   Gusts: NA
Location:  39.3715°N, 76.6675°W
Report Text: KBWI 210354Z 18007KT 10SM SCT050 OVC100 14/07 A2992 RMK AO2 PRESFR SLP131 T01390067
Loading
Personal Weather Stations






























Interactive Weather Map
Tropical Storm Tracking
New forecast layout! Learn more

10-Day Weather Forecast

Advertisements
Track Severe Weather on mobile